createdAt,value
2018-10-09T00:02:13.176Z,300.9
2018-10-09T00:07:21.623Z,301.3
2018-10-09T00:12:30.241Z,301
2018-10-09T00:17:38.712Z,300.9
2018-10-09T00:33:04.456Z,301
2018-10-09T00:38:13.024Z,301
2018-10-09T00:43:21.589Z,301.1
2018-10-09T00:48:30.053Z,301.1
2018-10-09T00:53:38.708Z,301.1
2018-10-09T00:58:47.237Z,301.1
2018-10-09T01:03:55.809Z,301
2018-10-09T01:09:04.384Z,301.2
2018-10-09T01:14:12.917Z,301.1
2018-10-09T01:19:21.479Z,301.1
2018-10-09T01:24:30.055Z,300.9
2018-10-09T01:29:38.632Z,300.9
2018-10-09T01:34:47.180Z,301.1
2018-10-09T01:45:04.572Z,301
2018-10-09T01:50:12.935Z,300.9
2018-10-09T01:55:21.425Z,301.3
2018-10-09T02:00:30.106Z,301.1
2018-10-09T02:05:38.678Z,301
2018-10-09T02:10:47.264Z,301.2
2018-10-09T02:15:55.845Z,301.2
2018-10-09T02:21:04.671Z,301.1
2018-10-09T02:26:13.044Z,301.3
2018-10-09T02:31:21.624Z,301
2018-10-09T02:36:30.232Z,301
2018-10-09T02:41:38.891Z,301.3
2018-10-09T02:46:47.586Z,301.1
2018-10-09T02:51:56.139Z,301.2
2018-10-09T02:57:04.759Z,301
2018-10-09T03:02:13.373Z,301
2018-10-09T03:07:22.117Z,301.2
2018-10-09T03:12:30.692Z,300.9
2018-10-09T03:17:39.249Z,301
2018-10-09T03:27:56.495Z,301
2018-10-09T03:33:05.140Z,301.1
2018-10-09T03:38:13.793Z,300.9
2018-10-09T03:43:22.440Z,301.2
2018-10-09T03:48:31.024Z,301
2018-10-09T03:53:39.656Z,301.3
2018-10-09T03:58:48.372Z,301.1
2018-10-09T04:03:56.995Z,301
2018-10-09T04:09:05.543Z,301.1
2018-10-09T04:14:14.228Z,301.2
2018-10-09T04:19:22.736Z,301.1
2018-10-09T04:24:31.406Z,301.4
2018-10-09T04:29:40.005Z,301
2018-10-09T04:34:48.588Z,301
2018-10-09T04:39:57.061Z,301.1
2018-10-09T04:50:14.238Z,301.3
2018-10-09T05:00:31.369Z,301.2
2018-10-09T05:10:48.385Z,301.2
2018-10-09T05:15:56.915Z,301.3
2018-10-09T05:26:14.014Z,303.6
2018-10-09T05:41:39.819Z,301.1
2018-10-09T05:46:48.094Z,301.1
2018-10-09T05:51:56.689Z,301.5
2018-10-09T05:57:05.223Z,301.1
2018-10-09T06:02:13.690Z,301.2
2018-10-09T06:07:22.279Z,301.4
2018-10-09T06:17:39.292Z,301.1
2018-10-09T06:22:47.765Z,301.1
2018-10-09T06:27:56.265Z,301.1
2018-10-09T06:33:04.778Z,301.3
2018-10-09T06:38:13.260Z,301.2
2018-10-09T06:43:21.842Z,301
2018-10-09T06:58:46.972Z,301.5
2018-10-09T07:03:55.342Z,301.6
2018-10-09T07:09:03.738Z,301.7
2018-10-09T07:14:12.022Z,301.3
2018-10-09T07:19:20.425Z,302.1
2018-10-09T07:24:28.764Z,301.9
2018-10-09T07:29:36.883Z,301.6
2018-10-09T07:39:53.416Z,301.4
2018-10-09T07:45:01.552Z,301.3
2018-10-09T07:50:09.652Z,301.5
2018-10-09T07:55:17.705Z,301.6
2018-10-09T08:00:25.696Z,301.2
2018-10-09T08:10:41.516Z,301.2
2018-10-09T08:15:49.341Z,301.4
2018-10-09T08:20:57.135Z,301.2
2018-10-09T08:26:04.753Z,301.4
2018-10-09T08:36:20.111Z,301.5
2018-10-09T08:41:27.670Z,301.6
2018-10-09T08:46:35.119Z,301.5
2018-10-09T08:51:42.588Z,302.2
2018-10-09T09:01:57.536Z,301.6
2018-10-09T09:07:07.638Z,301.4
2018-10-09T09:12:14.539Z,302.4
2018-10-09T09:22:27.567Z,301.6
2018-10-09T09:27:34.934Z,301.5
2018-10-09T09:32:42.433Z,302.1
2018-10-09T09:37:49.790Z,301.2
2018-10-09T09:42:57.055Z,302.2
2018-10-09T09:48:04.248Z,302.1
2018-10-09T09:53:11.616Z,301.9
2018-10-09T09:58:18.412Z,301.9
2018-10-09T10:03:25.377Z,301.8
2018-10-09T10:08:32.367Z,301.8
2018-10-09T10:18:46.426Z,301.9
2018-10-09T10:23:53.359Z,301.6
2018-10-09T10:29:00.430Z,302.2
2018-10-09T10:34:07.392Z,301.6
2018-10-09T10:44:21.209Z,302.3
2018-10-09T10:49:27.919Z,302.1
2018-10-09T10:54:34.573Z,302.2
2018-10-09T10:59:41.355Z,302.3
2018-10-09T11:04:48.056Z,302.2
2018-10-09T11:09:54.621Z,302.1
2018-10-09T11:25:14.642Z,302.3
2018-10-09T11:30:21.360Z,302
2018-10-09T11:35:28.142Z,302.1
2018-10-09T11:40:34.975Z,302
2018-10-09T11:45:44.594Z,302
2018-10-09T11:50:48.622Z,302.2
2018-10-09T12:01:02.249Z,302.5
2018-10-09T12:06:09.079Z,302.5
2018-10-09T12:11:15.904Z,302
2018-10-09T12:16:22.748Z,302.1
2018-10-09T12:21:29.692Z,301.9
2018-10-09T12:26:36.508Z,301.8
2018-10-09T12:31:43.501Z,301.9
2018-10-09T12:36:50.275Z,302
2018-10-09T12:47:04.320Z,301.8
2018-10-09T12:52:11.180Z,302.1
2018-10-09T12:57:18.053Z,302
2018-10-09T13:02:25.367Z,302.1
2018-10-09T13:07:32.098Z,302
2018-10-09T13:12:38.985Z,302
2018-10-09T13:22:52.979Z,302.1
2018-10-09T13:28:00.074Z,302.2
2018-10-09T13:33:06.979Z,302.1
2018-10-09T13:48:28.369Z,302.3
2018-10-09T13:58:42.688Z,302.2
2018-10-09T14:08:57.004Z,302
2018-10-09T14:19:11.557Z,302.6
2018-10-09T14:34:33.363Z,302.5
2018-10-09T14:39:40.642Z,301.8
2018-10-09T14:44:48.298Z,302
2018-10-09T14:49:55.280Z,303
2018-10-09T14:55:02.632Z,302.1
2018-10-09T15:00:09.964Z,301.8
2018-10-09T15:05:17.338Z,301.7
2018-10-09T15:15:32.093Z,301.7
2018-10-09T15:25:46.932Z,301.6
2018-10-09T15:30:54.385Z,302
2018-10-09T15:41:09.271Z,302
2018-10-09T15:46:16.762Z,301.9
2018-10-09T15:51:24.447Z,301.8
2018-10-09T15:56:31.775Z,301.8
2018-10-09T16:01:39.313Z,301.7
2018-10-09T16:06:46.843Z,301.7
2018-10-09T16:11:54.398Z,301.9
2018-10-09T16:17:01.971Z,302.6
2018-10-09T16:22:09.485Z,301.5
2018-10-09T16:27:17.140Z,302.6
2018-10-09T16:32:24.735Z,302.3
2018-10-09T16:37:32.345Z,302.3
2018-10-09T16:42:40.215Z,302
2018-10-09T16:52:55.298Z,302
2018-10-09T16:58:02.948Z,301.7
2018-10-09T17:13:26.053Z,301.7
2018-10-09T17:18:33.735Z,302.2
2018-10-09T17:23:41.602Z,302.4
2018-10-09T17:33:57.098Z,301.9
2018-10-09T17:39:04.867Z,302.8
2018-10-09T17:44:12.718Z,302.1
2018-10-09T17:49:20.533Z,302.6
2018-10-09T17:54:28.385Z,302.1
2018-10-09T17:59:36.267Z,302.4
2018-10-09T18:04:44.206Z,302.2
2018-10-09T18:09:51.997Z,302.3
2018-10-09T18:14:59.891Z,302.3
2018-10-09T18:20:07.810Z,302
2018-10-09T18:25:15.743Z,302.4
2018-10-09T18:35:31.573Z,302.1
2018-10-09T18:40:39.559Z,302.7
2018-10-09T18:50:55.529Z,302.5
2018-10-09T18:56:03.462Z,302.4
2018-10-09T19:01:11.543Z,302.2
2018-10-09T19:06:19.614Z,302.4
2018-10-09T19:11:27.550Z,302.2
2018-10-09T19:16:35.674Z,302.6
2018-10-09T19:21:43.722Z,305.8
2018-10-09T19:26:51.813Z,302.6
2018-10-09T19:31:59.846Z,302.6
2018-10-09T19:37:07.960Z,302.6
2018-10-09T19:42:15.988Z,302.6
2018-10-09T19:47:24.192Z,302.4
2018-10-09T19:52:32.287Z,303
2018-10-09T19:57:40.454Z,302.8
2018-10-09T20:02:48.632Z,303.1
2018-10-09T20:07:56.730Z,302.8
2018-10-09T20:18:13.250Z,303
2018-10-09T20:23:21.300Z,302.8
2018-10-09T20:38:46.055Z,302.7
2018-10-09T20:43:54.196Z,303.2
2018-10-09T20:49:02.439Z,302.8
2018-10-09T20:54:10.684Z,302.8
2018-10-09T21:09:35.413Z,302.8
2018-10-09T21:19:51.885Z,303
2018-10-09T21:25:00.156Z,302.7
2018-10-09T21:30:08.454Z,303
2018-10-09T21:35:16.848Z,303
2018-10-09T21:40:25.177Z,302.9
2018-10-09T21:45:33.472Z,302.9
2018-10-09T21:50:41.788Z,303.4
2018-10-09T21:55:50.105Z,302.9
2018-10-09T22:00:58.437Z,303
2018-10-09T22:06:06.595Z,303.1
2018-10-09T22:21:31.620Z,303
2018-10-09T22:26:39.963Z,302.9
2018-10-09T22:31:48.328Z,302.8
2018-10-09T22:42:07.407Z,303
2018-10-09T22:47:14.632Z,302.7
2018-10-09T22:52:21.761Z,302.8
2018-10-09T23:02:38.482Z,302.8
2018-10-09T23:12:55.207Z,302.9
2018-10-09T23:18:03.497Z,302.8
2018-10-09T23:23:11.906Z,302.8
2018-10-09T23:28:20.276Z,302.8
2018-10-09T23:33:28.640Z,303.2
2018-10-09T23:43:45.391Z,302.3
2018-10-09T23:48:53.753Z,302.9
